createdAt,value
2022-08-16T00:00:22.702Z,8.55
2022-08-16T00:02:52.099Z,9.40
2022-08-16T00:05:21.539Z,8.77
2022-08-16T00:07:56.829Z,9.00
2022-08-16T00:10:26.977Z,8.93
2022-08-16T00:12:58.908Z,8.73
2022-08-16T00:15:50.982Z,8.53
2022-08-16T00:18:22.096Z,8.52
2022-08-16T00:20:58.869Z,8.23
2022-08-16T00:23:40.173Z,8.03
2022-08-16T00:26:36.101Z,8.20
2022-08-16T00:29:03.385Z,9.13
2022-08-16T00:31:59.352Z,8.50
2022-08-16T00:34:43.293Z,9.27
2022-08-16T00:37:12.927Z,9.70
2022-08-16T00:39:58.396Z,9.30
2022-08-16T00:42:31.817Z,8.33
2022-08-16T00:45:08.760Z,8.70
2022-08-16T00:47:48.816Z,8.60
2022-08-16T00:50:21.706Z,9.63
2022-08-16T00:53:06.934Z,10.40
2022-08-16T00:55:40.877Z,9.90
2022-08-16T00:58:12.866Z,9.57
2022-08-16T01:00:54.372Z,9.47
2022-08-16T01:03:30.206Z,8.80
2022-08-16T01:06:32.654Z,9.00
2022-08-16T01:08:56.408Z,9.10
2022-08-16T01:11:30.826Z,8.87
2022-08-16T01:14:07.260Z,9.00
2022-08-16T01:16:36.167Z,8.77
2022-08-16T01:19:11.987Z,8.70
2022-08-16T01:21:53.457Z,8.30
2022-08-16T01:24:52.437Z,8.30
2022-08-16T01:27:21.766Z,8.83
2022-08-16T01:29:59.585Z,8.07
2022-08-16T01:32:34.003Z,8.23
2022-08-16T01:35:09.105Z,9.00
2022-08-16T01:37:54.136Z,8.43
2022-08-16T01:40:29.156Z,8.83
2022-08-16T01:42:59.147Z,8.30
2022-08-16T01:45:40.770Z,7.83
2022-08-16T01:48:19.985Z,8.30
2022-08-16T01:51:09.281Z,7.90
2022-08-16T01:53:42.613Z,8.57
2022-08-16T01:56:42.160Z,8.53
2022-08-16T01:59:15.714Z,8.50
2022-08-16T02:01:52.519Z,8.93
2022-08-16T02:04:48.574Z,8.60
2022-08-16T02:07:13.446Z,8.53
2022-08-16T02:09:42.987Z,8.93
2022-08-16T02:12:51.682Z,8.90
2022-08-16T02:15:25.338Z,8.10
2022-08-16T02:17:56.519Z,8.50
2022-08-16T02:20:27.959Z,9.73
2022-08-16T02:22:57.686Z,8.87
2022-08-16T02:25:52.769Z,9.10
2022-08-16T02:28:19.325Z,9.27
2022-08-16T02:30:51.768Z,8.80
2022-08-16T02:33:24.392Z,8.23
2022-08-16T02:36:42.244Z,8.30
2022-08-16T02:39:02.905Z,7.83
2022-08-16T02:41:32.064Z,8.70
2022-08-16T02:44:08.770Z,8.33
2022-08-16T02:46:38.228Z,8.50
2022-08-16T02:49:08.555Z,9.27
2022-08-16T02:51:39.664Z,9.07
2022-08-16T02:54:10.707Z,9.53
2022-08-16T02:56:39.439Z,9.00
2022-08-16T02:59:11.828Z,11.00
2022-08-16T03:01:44.264Z,10.43
2022-08-16T03:04:29.300Z,8.40
2022-08-16T03:07:14.484Z,11.50
2022-08-16T03:09:46.621Z,9.10
2022-08-16T03:12:20.577Z,9.50
2022-08-16T03:15:01.477Z,10.00
2022-08-16T03:17:32.269Z,9.53
2022-08-16T03:20:05.164Z,8.87
2022-08-16T03:22:38.473Z,8.97
2022-08-16T03:25:18.034Z,9.00
2022-08-16T03:27:57.268Z,9.03
2022-08-16T03:30:33.514Z,10.10
2022-08-16T03:33:07.499Z,9.70
2022-08-16T03:35:43.595Z,9.77
2022-08-16T03:38:34.766Z,9.37
2022-08-16T03:41:24.170Z,8.10
2022-08-16T03:43:57.639Z,9.73
2022-08-16T03:46:44.551Z,9.10
2022-08-16T03:49:22.555Z,8.50
2022-08-16T03:51:54.770Z,8.30
2022-08-16T03:54:28.421Z,9.60
2022-08-16T03:56:58.750Z,9.10
2022-08-16T03:59:32.709Z,9.10
2022-08-16T04:02:12.580Z,9.50
2022-08-16T04:04:54.194Z,8.70
2022-08-16T04:07:26.730Z,9.37
2022-08-16T04:10:36.364Z,8.17
2022-08-16T04:13:04.652Z,8.60
2022-08-16T04:15:35.155Z,8.73
2022-08-16T04:18:17.768Z,9.67
2022-08-16T04:20:46.835Z,8.90
2022-08-16T04:23:16.679Z,8.10
2022-08-16T04:25:47.361Z,8.43
2022-08-16T04:28:51.923Z,8.30
2022-08-16T04:31:07.253Z,8.60
2022-08-16T04:33:51.213Z,9.00
2022-08-16T04:36:23.868Z,8.70
2022-08-16T04:38:54.315Z,8.40
2022-08-16T04:41:32.833Z,9.47
2022-08-16T04:44:33.129Z,8.60
2022-08-16T04:47:01.473Z,8.80
2022-08-16T04:49:43.769Z,8.90
2022-08-16T04:52:35.194Z,8.77
2022-08-16T04:55:11.802Z,8.50
2022-08-16T04:57:42.625Z,9.23
2022-08-16T05:00:32.765Z,8.50
2022-08-16T05:03:16.126Z,8.07
2022-08-16T05:05:59.065Z,8.20
2022-08-16T05:08:34.389Z,8.07
2022-08-16T05:11:18.708Z,8.17
2022-08-16T05:13:50.746Z,8.30
2022-08-16T05:16:30.022Z,8.73
2022-08-16T05:19:13.419Z,8.17
2022-08-16T05:22:06.618Z,8.10
2022-08-16T05:24:47.596Z,7.90
2022-08-16T05:27:16.468Z,9.13
2022-08-16T05:29:57.808Z,8.35
2022-08-16T05:32:32.850Z,9.00
2022-08-16T05:35:11.122Z,8.30
2022-08-16T05:37:47.917Z,8.52
2022-08-16T05:40:18.679Z,8.60
2022-08-16T05:42:51.276Z,8.68
2022-08-16T05:45:23.137Z,8.63
2022-08-16T05:47:59.734Z,8.27
2022-08-16T05:50:37.938Z,8.43
2022-08-16T05:53:12.247Z,7.88
2022-08-16T05:55:55.514Z,7.75
2022-08-16T05:58:32.898Z,7.38
2022-08-16T06:01:03.368Z,7.68
2022-08-16T06:03:34.304Z,7.78
2022-08-16T06:06:08.485Z,8.70
2022-08-16T06:08:42.159Z,8.70
2022-08-16T06:11:16.668Z,8.98
2022-08-16T06:13:55.298Z,9.68
2022-08-16T06:16:36.118Z,10.15
2022-08-16T06:19:06.288Z,9.77
2022-08-16T06:21:39.449Z,10.65
2022-08-16T06:24:53.595Z,9.90
2022-08-16T06:26:59.004Z,10.35
2022-08-16T06:29:33.252Z,10.75
2022-08-16T06:32:02.779Z,11.27
2022-08-16T06:34:55.229Z,11.38
2022-08-16T06:37:22.317Z,11.00
2022-08-16T06:39:53.322Z,9.00
2022-08-16T06:42:47.094Z,9.70
2022-08-16T06:45:37.935Z,9.55
2022-08-16T06:48:18.829Z,11.18
2022-08-16T06:50:50.418Z,9.98
2022-08-16T06:53:19.897Z,9.48
2022-08-16T06:56:02.645Z,9.30
2022-08-16T06:58:42.979Z,8.68
2022-08-16T07:01:21.359Z,11.35
2022-08-16T07:03:55.863Z,10.57
2022-08-16T07:06:33.107Z,9.63
2022-08-16T07:09:10.788Z,8.55
2022-08-16T07:11:48.070Z,8.15
2022-08-16T07:14:32.656Z,8.23
2022-08-16T07:17:03.508Z,7.88
2022-08-16T07:20:03.013Z,8.20
2022-08-16T07:22:37.227Z,7.93
2022-08-16T07:25:16.809Z,8.23
2022-08-16T07:27:48.479Z,8.07
2022-08-16T07:30:45.815Z,7.85
2022-08-16T07:33:52.070Z,8.13
2022-08-16T07:36:07.835Z,7.80
2022-08-16T07:38:44.545Z,8.75
2022-08-16T07:41:15.807Z,8.00
2022-08-16T07:43:53.326Z,8.73
2022-08-16T07:46:38.704Z,8.07
2022-08-16T07:49:32.416Z,8.55
2022-08-16T07:52:20.095Z,8.23
2022-08-16T07:54:53.445Z,8.02
2022-08-16T07:57:24.155Z,7.90
2022-08-16T07:59:57.139Z,8.32
2022-08-16T08:02:27.516Z,8.23
2022-08-16T08:04:58.887Z,8.57
2022-08-16T08:07:32.440Z,8.25
2022-08-16T08:10:04.718Z,7.18
2022-08-16T08:12:35.814Z,7.82
2022-08-16T08:15:09.594Z,7.97
2022-08-16T08:17:42.946Z,8.40
2022-08-16T08:20:28.098Z,8.23
2022-08-16T08:23:02.200Z,8.98
2022-08-16T08:25:53.808Z,7.78
2022-08-16T08:28:26.526Z,8.02
2022-08-16T08:31:03.821Z,8.32
2022-08-16T08:33:46.705Z,8.57
2022-08-16T08:36:23.888Z,8.07
2022-08-16T08:39:12.555Z,8.32
2022-08-16T08:41:43.843Z,8.18
2022-08-16T08:44:28.443Z,8.43
2022-08-16T08:47:11.200Z,8.13
2022-08-16T08:49:50.386Z,9.07
2022-08-16T08:52:34.238Z,8.68
2022-08-16T08:55:10.576Z,9.15
2022-08-16T08:57:41.756Z,9.10
2022-08-16T09:00:30.353Z,8.73
2022-08-16T09:03:04.239Z,8.80
2022-08-16T09:05:37.372Z,9.20
2022-08-16T09:08:09.492Z,8.85
2022-08-16T09:11:07.410Z,8.55
2022-08-16T09:13:47.135Z,8.18
2022-08-16T09:17:01.149Z,8.50
2022-08-16T09:21:42.886Z,8.70
2022-08-16T09:24:19.851Z,8.43
2022-08-16T09:27:03.216Z,8.68
2022-08-16T09:29:44.844Z,8.30
2022-08-16T09:32:28.638Z,8.48
2022-08-16T09:35:01.682Z,9.25
2022-08-16T09:37:36.366Z,9.00
2022-08-16T09:40:32.334Z,8.52
2022-08-16T09:42:59.076Z,8.40
2022-08-16T09:45:31.317Z,9.13
2022-08-16T09:48:00.219Z,9.05
2022-08-16T09:50:37.028Z,8.88
2022-08-16T09:53:15.298Z,8.75
2022-08-16T09:55:49.249Z,8.65
2022-08-16T09:58:40.581Z,9.32
2022-08-16T10:01:11.400Z,8.90
2022-08-16T10:04:01.564Z,9.38
2022-08-16T10:06:33.580Z,8.95
2022-08-16T10:09:05.398Z,9.20
2022-08-16T10:11:53.273Z,9.02
2022-08-16T10:14:24.601Z,8.50
2022-08-16T10:17:03.406Z,8.90
2022-08-16T10:19:33.109Z,9.32
2022-08-16T10:22:05.203Z,9.13
2022-08-16T10:24:34.832Z,8.45
2022-08-16T10:27:25.615Z,8.38
2022-08-16T10:30:00.956Z,8.90
2022-08-16T10:32:32.358Z,8.93
2022-08-16T10:35:03.474Z,8.90
2022-08-16T10:37:36.272Z,8.48
2022-08-16T10:40:28.767Z,8.63
2022-08-16T10:42:56.838Z,8.43
2022-08-16T10:45:27.323Z,8.68
2022-08-16T10:48:00.926Z,8.38
2022-08-16T10:50:33.937Z,9.23
2022-08-16T10:53:06.810Z,9.52
2022-08-16T10:55:40.993Z,8.82
2022-08-16T10:58:16.920Z,8.40
2022-08-16T11:00:47.239Z,8.55
2022-08-16T11:06:09.488Z,8.07
2022-08-16T11:08:45.742Z,7.90
2022-08-16T11:11:19.709Z,7.82
2022-08-16T11:13:59.296Z,8.60
2022-08-16T11:19:18.501Z,9.40
2022-08-16T11:24:44.649Z,9.13
2022-08-16T11:27:35.278Z,9.00
2022-08-16T11:30:09.247Z,9.00
2022-08-16T11:32:44.252Z,9.30
2022-08-16T11:35:16.598Z,8.60
2022-08-16T11:40:44.485Z,8.98
2022-08-16T11:43:16.581Z,8.85
2022-08-16T11:45:53.654Z,9.48
2022-08-16T11:48:24.077Z,9.27
2022-08-16T11:50:52.885Z,9.00
2022-08-16T11:53:22.106Z,9.10
2022-08-16T11:55:54.998Z,9.40
2022-08-16T11:58:24.728Z,9.25
2022-08-16T12:00:55.875Z,10.00
2022-08-16T12:03:34.326Z,8.48
2022-08-16T12:06:24.642Z,9.52
2022-08-16T12:09:01.741Z,8.88
2022-08-16T12:11:33.390Z,9.00
2022-08-16T12:14:04.291Z,9.68
2022-08-16T12:16:34.792Z,9.40
2022-08-16T12:19:05.902Z,8.65
2022-08-16T12:21:35.866Z,9.13
2022-08-16T12:24:24.135Z,8.95
2022-08-16T12:26:54.979Z,9.02
2022-08-16T12:29:25.783Z,9.07
2022-08-16T12:32:26.777Z,9.57
2022-08-16T12:34:50.744Z,9.20
2022-08-16T12:37:24.368Z,10.05
2022-08-16T12:39:56.745Z,9.48
2022-08-16T12:42:35.491Z,9.13
2022-08-16T12:45:07.670Z,9.40
2022-08-16T12:48:05.079Z,9.70
2022-08-16T12:50:42.949Z,9.02
2022-08-16T12:53:18.425Z,10.10
2022-08-16T12:55:50.916Z,9.07
2022-08-16T12:58:48.683Z,9.45
2022-08-16T13:01:12.587Z,9.80
2022-08-16T13:03:44.226Z,10.00
2022-08-16T13:06:13.765Z,9.23
2022-08-16T13:08:49.862Z,9.27
2022-08-16T13:11:23.919Z,8.48
2022-08-16T13:13:54.968Z,7.90
2022-08-16T13:16:25.065Z,8.35
2022-08-16T13:18:56.127Z,8.80
2022-08-16T13:21:24.885Z,9.15
2022-08-16T13:23:56.001Z,8.20
2022-08-16T13:26:26.387Z,7.70
2022-08-16T13:28:57.049Z,8.57
2022-08-16T13:31:26.246Z,8.00
2022-08-16T13:33:58.881Z,8.20
2022-08-16T13:39:17.477Z,8.60
2022-08-16T13:41:53.494Z,9.15
2022-08-16T13:44:48.746Z,9.00
2022-08-16T13:47:13.348Z,9.23
2022-08-16T13:49:43.357Z,9.43
2022-08-16T13:52:13.317Z,9.23
2022-08-16T13:54:42.576Z,9.35
2022-08-16T13:57:11.923Z,9.23
2022-08-16T13:59:43.535Z,8.85
2022-08-16T14:02:14.345Z,8.90
2022-08-16T14:04:44.211Z,9.52
2022-08-16T14:07:19.994Z,9.25
2022-08-16T14:09:55.073Z,9.13
2022-08-16T14:12:26.079Z,9.30
2022-08-16T14:14:57.377Z,9.80
2022-08-16T14:17:27.665Z,9.35
2022-08-16T14:20:00.032Z,8.45
2022-08-16T14:22:35.901Z,8.10
2022-08-16T14:25:16.642Z,8.57
2022-08-16T14:27:48.175Z,8.43
2022-08-16T14:30:23.267Z,9.15
2022-08-16T14:32:54.074Z,9.05
2022-08-16T14:35:36.822Z,8.55
2022-08-16T14:38:18.295Z,8.73
2022-08-16T14:40:53.186Z,9.63
2022-08-16T14:43:24.463Z,8.98
2022-08-16T14:45:55.736Z,8.25
2022-08-16T14:48:26.028Z,8.38
2022-08-16T14:50:56.053Z,8.65
2022-08-16T14:53:26.400Z,8.80
2022-08-16T14:55:55.815Z,8.60
2022-08-16T14:58:34.710Z,8.70
2022-08-16T15:01:10.128Z,8.52
2022-08-16T15:03:42.293Z,9.40
2022-08-16T15:06:14.266Z,9.18
2022-08-16T15:08:45.242Z,8.88
2022-08-16T15:11:14.860Z,9.05
2022-08-16T15:13:43.633Z,9.20
2022-08-16T15:16:13.848Z,8.90
2022-08-16T15:18:42.648Z,8.70
2022-08-16T15:21:15.469Z,8.60
2022-08-16T15:23:44.427Z,9.07
2022-08-16T15:26:22.268Z,9.40
2022-08-16T15:29:01.880Z,9.23
2022-08-16T15:31:33.699Z,9.65
2022-08-16T15:34:03.972Z,9.63
2022-08-16T15:36:32.688Z,9.40
2022-08-16T15:39:07.058Z,9.80
2022-08-16T15:42:07.066Z,9.35
2022-08-16T15:44:50.907Z,8.95
2022-08-16T15:47:26.339Z,8.55
2022-08-16T15:49:56.136Z,9.45
2022-08-16T15:52:30.240Z,9.75
2022-08-16T15:55:01.077Z,9.18
2022-08-16T15:57:42.144Z,9.75
2022-08-16T16:00:26.651Z,9.68
2022-08-16T16:03:04.855Z,9.85
2022-08-16T16:05:38.370Z,9.60
2022-08-16T16:08:11.227Z,9.50
2022-08-16T16:10:43.440Z,8.70
2022-08-16T16:13:13.550Z,9.07
2022-08-16T16:15:45.690Z,9.15
2022-08-16T16:18:18.011Z,9.30
2022-08-16T16:20:49.735Z,8.93
2022-08-16T16:23:23.538Z,8.40
2022-08-16T16:25:53.147Z,8.18
2022-08-16T16:29:06.572Z,8.13
2022-08-16T16:31:15.514Z,8.07
2022-08-16T16:33:47.881Z,8.48
2022-08-16T16:36:25.477Z,8.50
2022-08-16T16:38:57.104Z,8.93
2022-08-16T16:41:28.776Z,9.20
2022-08-16T16:44:01.118Z,8.68
2022-08-16T16:46:40.941Z,8.75
2022-08-16T16:49:15.076Z,9.05
2022-08-16T16:51:50.143Z,9.50
2022-08-16T16:54:27.896Z,8.68
2022-08-16T16:56:58.080Z,8.75
2022-08-16T16:59:28.205Z,9.65
2022-08-16T17:02:38.769Z,9.07
2022-08-16T17:04:49.514Z,8.32
2022-08-16T17:07:20.707Z,8.50
2022-08-16T17:09:53.377Z,8.43
2022-08-16T17:12:25.143Z,8.52
2022-08-16T17:15:11.710Z,8.55
2022-08-16T17:18:00.067Z,8.20
2022-08-16T17:20:32.309Z,7.72
2022-08-16T17:23:01.159Z,8.82
2022-08-16T17:25:36.470Z,7.88
2022-08-16T17:28:58.048Z,8.02
2022-08-16T17:31:08.525Z,7.90
2022-08-16T17:33:54.166Z,8.00
2022-08-16T17:36:36.488Z,7.93
2022-08-16T17:39:07.611Z,7.90
2022-08-16T17:41:39.267Z,7.70
2022-08-16T17:44:09.035Z,7.70
2022-08-16T17:46:50.897Z,7.25
2022-08-16T17:49:21.614Z,7.45
2022-08-16T17:51:51.885Z,7.75
2022-08-16T17:54:30.743Z,7.70
2022-08-16T17:57:00.468Z,7.47
2022-08-16T17:59:30.386Z,7.22
2022-08-16T18:01:59.492Z,7.00
2022-08-16T18:04:48.331Z,7.28
2022-08-16T18:07:18.561Z,7.13
2022-08-16T18:09:47.346Z,7.70
2022-08-16T18:12:44.314Z,7.15
2022-08-16T18:15:10.669Z,7.43
2022-08-16T18:17:40.064Z,7.80
2022-08-16T18:20:33.590Z,7.72
2022-08-16T18:23:07.906Z,6.75
2022-08-16T18:25:37.239Z,7.13
2022-08-16T18:28:06.226Z,6.72
2022-08-16T18:30:35.015Z,6.93
2022-08-16T18:33:03.887Z,6.70
2022-08-16T18:35:32.735Z,6.10
2022-08-16T18:38:01.458Z,6.97
2022-08-16T18:40:31.725Z,6.30
2022-08-16T18:43:02.646Z,6.50
2022-08-16T18:45:35.305Z,7.60
2022-08-16T18:48:06.666Z,6.75
2022-08-16T18:50:59.403Z,7.32
2022-08-16T18:53:26.221Z,7.28
2022-08-16T18:55:58.467Z,6.47
2022-08-16T18:58:28.028Z,5.97
2022-08-16T19:00:57.562Z,8.93
2022-08-16T19:03:28.989Z,8.25
2022-08-16T19:05:59.399Z,7.88
2022-08-16T19:08:28.292Z,9.55
2022-08-16T19:10:58.606Z,9.18
2022-08-16T19:13:29.882Z,7.63
2022-08-16T19:16:01.563Z,7.05
2022-08-16T19:18:36.395Z,7.85
2022-08-16T19:21:06.808Z,8.02
2022-08-16T19:23:37.787Z,7.57
2022-08-16T19:26:24.615Z,7.63
2022-08-16T19:28:59.772Z,7.53
2022-08-16T19:31:34.188Z,8.10
2022-08-16T19:34:04.573Z,7.38
2022-08-16T19:36:37.067Z,8.15
2022-08-16T19:39:08.863Z,9.18
2022-08-16T19:41:43.262Z,8.30
2022-08-16T19:44:12.289Z,9.38
2022-08-16T19:46:43.533Z,9.33
2022-08-16T19:49:16.038Z,8.90
2022-08-16T19:51:45.680Z,9.20
2022-08-16T19:54:14.727Z,8.82
2022-08-16T19:56:45.278Z,9.18
2022-08-16T19:59:39.410Z,8.50
2022-08-16T20:02:04.948Z,8.13
2022-08-16T20:04:34.502Z,8.02
2022-08-16T20:07:03.539Z,7.90
2022-08-16T20:09:33.418Z,7.50
2022-08-16T20:12:10.657Z,8.00
2022-08-16T20:14:39.469Z,8.13
2022-08-16T20:17:08.657Z,7.72
2022-08-16T20:19:40.290Z,8.40
2022-08-16T20:22:49.867Z,8.40
2022-08-16T20:25:14.576Z,9.50
2022-08-16T20:27:45.068Z,9.15
2022-08-16T20:30:15.977Z,8.60
2022-08-16T20:32:46.649Z,7.83
2022-08-16T20:35:18.269Z,8.45
2022-08-16T20:37:47.625Z,7.30
2022-08-16T20:40:33.846Z,7.37
2022-08-16T20:43:07.969Z,7.97
2022-08-16T20:45:36.978Z,8.07
2022-08-16T20:48:06.849Z,7.82
2022-08-16T20:50:36.633Z,7.30
2022-08-16T20:53:07.310Z,7.63
2022-08-16T20:55:37.599Z,7.10
2022-08-16T20:58:07.716Z,7.40
2022-08-16T21:00:36.758Z,7.77
2022-08-16T21:03:08.190Z,7.33
2022-08-16T21:05:37.779Z,7.77
2022-08-16T21:08:47.266Z,7.40
2022-08-16T21:10:56.555Z,7.40
2022-08-16T21:13:27.064Z,7.23
2022-08-16T21:15:55.788Z,7.47
2022-08-16T21:18:24.816Z,7.40
2022-08-16T21:20:54.248Z,7.43
2022-08-16T21:23:23.324Z,7.80
2022-08-16T21:25:57.965Z,7.70
2022-08-16T21:28:40.069Z,7.33
2022-08-16T21:31:11.674Z,7.53
2022-08-16T21:33:41.163Z,7.50
2022-08-16T21:36:10.649Z,8.20
2022-08-16T21:38:39.866Z,7.80
2022-08-16T21:41:10.579Z,7.45
2022-08-16T21:43:41.249Z,7.60
2022-08-16T21:46:10.787Z,7.80
2022-08-16T21:48:41.154Z,6.83
2022-08-16T21:51:13.496Z,7.37
2022-08-16T21:53:43.123Z,7.27
2022-08-16T21:56:16.512Z,8.03
2022-08-16T21:58:53.136Z,7.70
2022-08-16T22:01:23.421Z,7.30
2022-08-16T22:04:35.819Z,7.73
2022-08-16T22:06:42.644Z,8.23
2022-08-16T22:09:13.259Z,9.00
2022-08-16T22:11:42.202Z,8.87
2022-08-16T22:14:13.169Z,7.50
2022-08-16T22:16:43.681Z,8.53
2022-08-16T22:19:13.647Z,8.93
2022-08-16T22:21:42.578Z,9.17
2022-08-16T22:24:11.517Z,7.80
2022-08-16T22:26:43.247Z,8.10
2022-08-16T22:29:15.191Z,7.63
2022-08-16T22:31:44.621Z,7.77
2022-08-16T22:34:13.809Z,7.73
2022-08-16T22:36:42.980Z,7.67
2022-08-16T22:39:14.496Z,7.50
2022-08-16T22:41:46.053Z,7.50
2022-08-16T22:44:16.943Z,7.40
2022-08-16T22:46:46.204Z,8.00
2022-08-16T22:49:15.126Z,7.67
2022-08-16T22:51:43.929Z,7.50
2022-08-16T22:54:37.456Z,7.90
2022-08-16T22:57:01.228Z,8.07
2022-08-16T22:59:32.241Z,7.80
2022-08-16T23:02:01.385Z,8.00
2022-08-16T23:04:30.545Z,7.40
2022-08-16T23:07:00.480Z,7.90
2022-08-16T23:09:30.849Z,7.50
2022-08-16T23:12:04.314Z,7.53
2022-08-16T23:14:34.609Z,7.90
2022-08-16T23:17:03.539Z,8.30
2022-08-16T23:19:32.496Z,8.67
2022-08-16T23:22:01.427Z,8.20
2022-08-16T23:24:30.327Z,8.53
2022-08-16T23:27:06.288Z,10.17
2022-08-16T23:29:36.747Z,9.30
2022-08-16T23:32:13.046Z,9.63
2022-08-16T23:34:42.098Z,9.80
2022-08-16T23:37:10.977Z,9.53
2022-08-16T23:39:39.921Z,9.43
2022-08-16T23:42:15.606Z,9.27
2022-08-16T23:45:06.849Z,9.27
2022-08-16T23:47:35.798Z,9.63
2022-08-16T23:50:04.817Z,8.90
2022-08-16T23:52:39.398Z,8.80
2022-08-16T23:55:22.598Z,9.13
2022-08-16T23:57:52.392Z,9.10
